Time;durP1;ratioP1;P1;durP2;ratioP2;P2;SDS_P1;SDS_P2;PMS_P1;PMS_P2;Temp;Humidity;BMP_temperature;BMP_pressure;BME280_temperature;BME280_humidity;BME280_pressure;Samples;Min_cycle;Max_cycle;Signal;HPM_P1;HPM_P2
2020/12/28 00:01:31;;;;;;;10.43;5.03;;;179.20;1894.40;;;;;;5052827;28;20759;-65
2020/12/28 00:03:57;;;;;;;19.38;7.82;;;179.20;1894.40;;;;;;5051991;28;20080;-65
2020/12/28 00:06:23;;;;;;;25.10;10.93;;;179.20;1894.40;;;;;;5052484;28;20037;-66
2020/12/28 00:08:48;;;;;;;25.48;10.73;;;179.20;1920.00;;;;;;5053672;28;20048;-65
2020/12/28 00:11:18;;;;;;;17.80;8.05;;;179.20;1894.40;;;;;;5050299;28;20687;-66
2020/12/28 00:13:45;;;;;;;12.43;6.53;;;179.20;1920.00;;;;;;5056411;28;20024;-66
2020/12/28 00:16:15;;;;;;;15.40;6.22;;;154.50;1894.40;;;;;;5056683;28;20104;-65
2020/12/28 00:18:43;;;;;;;11.65;4.25;;;154.50;1894.40;;;;;;5056232;28;20025;-66
2020/12/28 00:21:09;;;;;;;6.45;3.58;;;154.50;1920.00;;;;;;5056433;28;20033;-66
2020/12/28 00:23:36;;;;;;;7.63;3.88;;;154.50;1920.00;;;;;;5056773;28;20072;-65
2020/12/28 00:26:02;;;;;;;6.25;3.00;;;154.50;1920.00;;;;;;5056309;28;20039;-65
2020/12/28 00:28:28;;;;;;;4.15;2.42;;;154.50;1920.00;;;;;;5056612;28;20051;-66
2020/12/28 00:30:54;;;;;;;3.75;2.03;;;154.50;1920.00;;;;;;5056147;28;20431;-65
2020/12/28 00:33:19;;;;;;;9.60;4.43;;;154.50;1920.00;;;;;;5055957;28;20029;-66
2020/12/28 00:35:45;;;;;;;6.78;3.50;;;154.50;1920.00;;;;;;5056065;28;20114;-66
2020/12/28 00:38:11;;;;;;;7.95;3.92;;;154.50;1920.00;;;;;;5056544;28;20025;-65
2020/12/28 00:40:37;;;;;;;13.25;5.70;;;154.50;1920.00;;;;;;5056786;28;20068;-66
2020/12/28 00:43:03;;;;;;;11.95;5.25;;;154.50;1920.00;;;;;;5056717;28;20116;-66
2020/12/28 00:45:29;;;;;;;13.40;6.20;;;154.50;1920.00;;;;;;5057044;28;20044;-64
2020/12/28 00:47:54;;;;;;;12.45;5.75;;;154.50;1920.00;;;;;;5056848;28;20028;-65
2020/12/28 00:50:20;;;;;;;10.00;5.00;;;154.50;1920.00;;;;;;5056624;28;20079;-65
2020/12/28 00:52:46;;;;;;;10.50;5.60;;;154.50;1920.00;;;;;;5056717;28;20463;-65
2020/12/28 00:55:11;;;;;;;8.60;4.57;;;154.50;1920.00;;;;;;5056988;28;20021;-65
2020/12/28 00:57:37;;;;;;;8.85;4.55;;;154.50;1920.00;;;;;;5057060;28;20068;-65
2020/12/28 01:00:05;;;;;;;8.30;3.92;;;154.50;1920.00;;;;;;5056828;28;20067;-65
2020/12/28 01:02:31;;;;;;;8.32;4.22;;;154.50;1920.00;;;;;;5056579;28;20028;-65
2020/12/28 01:04:57;;;;;;;8.68;4.75;;;154.40;1920.00;;;;;;5056074;28;20402;-66
2020/12/28 01:07:22;;;;;;;10.80;5.85;;;154.40;1920.00;;;;;;5056785;28;20053;-65
2020/12/28 01:09:48;;;;;;;7.55;4.50;;;154.40;1920.00;;;;;;5056502;28;20475;-65
2020/12/28 01:12:14;;;;;;;5.65;3.40;;;154.50;1920.00;;;;;;5056649;28;20029;-65
2020/12/28 01:14:40;;;;;;;6.18;3.30;;;154.50;1945.60;;;;;;5056356;28;20021;-66
2020/12/28 01:17:07;;;;;;;4.70;2.78;;;154.50;1945.60;;;;;;5056632;28;20108;-66
2020/12/28 01:19:32;;;;;;;4.88;2.65;;;154.50;1945.60;;;;;;5056241;28;20485;-66
2020/12/28 01:21:58;;;;;;;4.70;2.67;;;154.50;1945.60;;;;;;5056229;28;20242;-66
2020/12/28 01:24:24;;;;;;;3.92;2.10;;;154.50;1945.60;;;;;;5056363;28;20029;-66
2020/12/28 01:26:50;;;;;;;2.55;1.60;;;154.50;1945.60;;;;;;5056267;28;20039;-66
2020/12/28 01:29:15;;;;;;;4.07;2.40;;;179.20;1945.60;;;;;;5056285;28;20025;-66
2020/12/28 01:31:41;;;;;;;3.58;2.50;;;179.20;1945.60;;;;;;5056409;28;20497;-66
2020/12/28 01:34:07;;;;;;;4.18;2.58;;;179.30;1971.20;;;;;;5055944;28;20048;-65
2020/12/28 01:36:33;;;;;;;4.05;2.40;;;179.30;1945.60;;;;;;5055832;28;20154;-66
2020/12/28 01:38:59;;;;;;;3.78;2.20;;;179.30;1971.20;;;;;;5056085;28;20100;-65
2020/12/28 01:41:24;;;;;;;4.75;2.10;;;179.30;1971.20;;;;;;5055534;28;20029;-66
2020/12/28 01:43:50;;;;;;;3.38;2.17;;;179.40;1971.20;;;;;;5055809;28;20029;-66
2020/12/28 01:46:17;;;;;;;2.70;2.10;;;179.40;1971.20;;;;;;5055800;28;20072;-66
2020/12/28 01:48:43;;;;;;;3.17;2.30;;;179.40;1971.20;;;;;;5055729;28;20029;-66
2020/12/28 01:51:08;;;;;;;4.05;1.95;;;179.50;1971.20;;;;;;5055820;28;20052;-66
2020/12/28 01:53:34;;;;;;;3.42;2.03;;;179.50;1971.20;;;;;;5055885;28;20462;-65
2020/12/28 01:56:05;;;;;;;4.18;2.63;;;179.50;1971.20;;;;;;5055587;28;20475;-66
2020/12/28 01:58:31;;;;;;;3.90;2.85;;;179.50;1971.20;;;;;;5056250;28;20041;-65
2020/12/28 02:00:58;;;;;;;6.90;2.85;;;179.60;1996.80;;;;;;5055756;28;20509;-66
2020/12/28 02:03:25;;;;;;;4.65;3.00;;;179.60;1996.80;;;;;;5055424;28;20025;-65
2020/12/28 02:05:52;;;;;;;5.72;3.42;;;179.70;1996.80;;;;;;5055312;28;20052;-64
2020/12/28 02:08:18;;;;;;;8.25;3.63;;;179.70;1996.80;;;;;;5055358;28;20078;-64
2020/12/28 02:10:44;;;;;;;17.90;5.43;;;179.70;2022.40;;;;;;5055505;28;20024;-64
2020/12/28 02:13:10;;;;;;;12.70;5.82;;;179.80;2022.40;;;;;;5055002;28;20103;-64
2020/12/28 02:15:36;;;;;;;8.52;4.30;;;179.80;2022.40;;;;;;5055303;28;20052;-64
2020/12/28 02:18:02;;;;;;;5.65;3.63;;;179.80;2022.40;;;;;;5055242;28;20053;-64
2020/12/28 02:20:27;;;;;;;6.22;3.38;;;179.80;2022.40;;;;;;5055327;28;20025;-64
2020/12/28 02:22:53;;;;;;;5.20;3.03;;;179.80;2022.40;;;;;;5055075;28;20032;-64
2020/12/28 02:25:19;;;;;;;4.90;3.40;;;179.80;2022.40;;;;;;5055265;28;20375;-64
2020/12/28 02:27:44;;;;;;;4.15;3.05;;;179.80;2022.40;;;;;;5055294;28;20025;-64
2020/12/28 02:30:10;;;;;;;4.72;2.85;;;179.90;2022.40;;;;;;5055005;28;20417;-64
2020/12/28 02:32:36;;;;;;;8.27;3.72;;;179.90;2022.40;;;;;;5055009;28;20029;-65
2020/12/28 02:35:02;;;;;;;11.75;5.03;;;179.90;2022.40;;;;;;5054599;28;20025;-64
2020/12/28 02:37:28;;;;;;;7.88;4.70;;;179.90;2022.40;;;;;;5055018;28;20501;-64
2020/12/28 02:39:54;;;;;;;9.48;5.35;;;180.00;2022.40;;;;;;5054988;28;20021;-64
2020/12/28 02:42:19;;;;;;;11.90;4.90;;;180.00;2022.40;;;;;;5054929;28;20360;-64
2020/12/28 02:44:45;;;;;;;8.57;3.83;;;180.00;2022.40;;;;;;5054830;28;20029;-64
2020/12/28 02:47:11;;;;;;;14.93;6.05;;;180.00;2022.40;;;;;;5054472;28;20033;-64
2020/12/28 02:49:37;;;;;;;12.77;5.00;;;180.00;2022.40;;;;;;5054817;28;20120;-64
2020/12/28 02:52:02;;;;;;;13.13;6.05;;;180.00;2022.40;;;;;;5054570;28;20488;-64
2020/12/28 02:54:28;;;;;;;14.25;6.65;;;180.00;2022.40;;;;;;5054685;28;20033;-65
2020/12/28 02:56:54;;;;;;;13.85;6.05;;;180.00;2022.40;;;;;;5054618;28;20356;-64
2020/12/28 02:59:19;;;;;;;11.70;5.03;;;180.10;2022.40;;;;;;5054410;28;20029;-64
2020/12/28 03:01:48;;;;;;;10.55;4.30;;;180.10;2022.40;;;;;;5054357;28;20025;-64
2020/12/28 03:04:13;;;;;;;8.05;3.72;;;180.10;2022.40;;;;;;5054237;28;20049;-64
2020/12/28 03:06:39;;;;;;;9.73;3.63;;;180.10;2022.40;;;;;;5054327;28;20505;-64
2020/12/28 03:09:05;;;;;;;4.90;3.35;;;180.10;1996.80;;;;;;5054782;28;20029;-64
2020/12/28 03:11:31;;;;;;;7.47;3.33;;;204.80;2022.40;;;;;;5054233;28;20051;-64
2020/12/28 03:13:56;;;;;;;8.63;3.65;;;204.80;2022.40;;;;;;5054362;28;20049;-64
2020/12/28 03:16:22;;;;;;;4.75;3.78;;;204.80;2022.40;;;;;;5054172;28;20051;-64
2020/12/28 03:18:48;;;;;;;3.92;3.42;;;204.80;2022.40;;;;;;5054137;28;20025;-64
2020/12/28 03:21:13;;;;;;;5.25;3.20;;;204.80;2022.40;;;;;;5054232;28;20086;-64
2020/12/28 03:23:39;;;;;;;6.10;3.20;;;204.80;2022.40;;;;;;5053837;28;20071;-64
2020/12/28 03:26:05;;;;;;;5.97;3.90;;;204.80;2022.40;;;;;;5054147;28;20032;-64
2020/12/28 03:28:30;;;;;;;4.70;3.50;;;204.90;2022.40;;;;;;5053924;28;20358;-64
2020/12/28 03:30:56;;;;;;;6.47;4.15;;;204.90;2022.40;;;;;;5053911;28;20071;-64
2020/12/28 03:33:22;;;;;;;8.57;4.40;;;204.90;2022.40;;;;;;5053785;28;20029;-64
2020/12/28 03:35:47;;;;;;;4.65;3.83;;;204.90;2022.40;;;;;;5053818;28;20112;-64
2020/12/28 03:38:13;;;;;;;8.52;4.15;;;204.90;2022.40;;;;;;5069301;28;20433;-64
2020/12/28 03:40:39;;;;;;;6.25;3.83;;;204.90;2022.40;;;;;;5053951;28;20033;-64
2020/12/28 03:43:04;;;;;;;5.40;3.72;;;205.00;2022.40;;;;;;5053736;28;20052;-64
2020/12/28 03:45:30;;;;;;;5.13;3.75;;;205.00;2022.40;;;;;;5053593;28;20082;-64
2020/12/28 03:47:56;;;;;;;7.20;4.18;;;205.00;2022.40;;;;;;5053147;28;20490;-64
2020/12/28 03:50:23;;;;;;;6.28;4.57;;;205.00;2022.40;;;;;;5053828;28;20083;-64
2020/12/28 03:52:49;;;;;;;6.93;4.60;;;205.00;2022.40;;;;;;5053209;28;20029;-64
2020/12/28 03:55:14;;;;;;;6.60;4.15;;;205.00;2022.40;;;;;;5053651;28;20348;-64
2020/12/28 03:57:40;;;;;;;5.70;4.30;;;205.10;2022.40;;;;;;5053713;28;20082;-64
2020/12/28 04:00:06;;;;;;;7.28;4.45;;;205.00;2022.40;;;;;;5053739;28;20031;-64
2020/12/28 04:02:32;;;;;;;10.48;4.28;;;205.10;2022.40;;;;;;5053552;28;20083;-64
2020/12/28 04:04:57;;;;;;;5.68;4.07;;;205.10;2022.40;;;;;;5053164;28;20055;-64
2020/12/28 04:07:23;;;;;;;7.88;4.30;;;205.10;2022.40;;;;;;5053362;28;20041;-64
2020/12/28 04:09:49;;;;;;;9.10;4.95;;;205.10;2022.40;;;;;;5052376;28;20048;-64
2020/12/28 04:12:14;;;;;;;6.43;4.57;;;205.10;2022.40;;;;;;5053427;28;20036;-64
2020/12/28 04:14:49;;;;;;;7.88;4.50;;;205.10;1996.80;;;;;;5053620;28;20029;-65
2020/12/28 04:17:14;;;;;;;6.20;5.13;;;205.10;2022.40;;;;;;5053328;28;20029;-64
2020/12/28 04:19:40;;;;;;;12.40;7.85;;;205.20;1996.80;;;;;;5051095;28;20028;-65
2020/12/28 04:22:06;;;;;;;9.82;6.22;;;205.20;2022.40;;;;;;5053480;28;20025;-65
2020/12/28 04:24:31;;;;;;;7.38;4.95;;;205.20;2022.40;;;;;;5053488;28;20023;-64
2020/12/28 04:26:57;;;;;;;7.10;5.53;;;205.30;2022.40;;;;;;5053128;28;20494;-64
2020/12/28 04:29:23;;;;;;;10.90;5.07;;;205.30;1996.80;;;;;;5053217;28;20047;-64
2020/12/28 04:31:49;;;;;;;8.93;4.93;;;205.30;2022.40;;;;;;5051725;28;20155;-64
2020/12/28 04:34:14;;;;;;;7.47;4.90;;;205.30;2022.40;;;;;;5052416;28;20443;-65
2020/12/28 04:36:40;;;;;;;7.55;5.00;;;205.30;1996.80;;;;;;5052496;28;20051;-65
2020/12/28 04:39:06;;;;;;;7.50;4.45;;;205.30;1996.80;;;;;;5053199;28;20491;-65
2020/12/28 04:41:32;;;;;;;7.65;4.93;;;205.30;1996.80;;;;;;5053057;28;20083;-64
2020/12/28 04:43:59;;;;;;;5.70;4.65;;;205.40;2022.40;;;;;;5052477;28;20021;-64
2020/12/28 04:46:30;;;;;;;10.20;4.72;;;205.40;1996.80;;;;;;5053021;28;20028;-65
2020/12/28 04:48:56;;;;;;;6.55;4.47;;;205.40;1996.80;;;;;;5053102;28;20024;-65
2020/12/28 04:51:23;;;;;;;8.23;4.88;;;205.40;1996.80;;;;;;5053335;28;20025;-64
2020/12/28 04:53:52;;;;;;;7.55;4.55;;;205.40;1996.80;;;;;;5052862;28;20029;-65
2020/12/28 04:56:19;;;;;;;7.25;4.57;;;205.40;1996.80;;;;;;5052971;28;20067;-65
2020/12/28 04:58:45;;;;;;;7.35;4.72;;;205.40;1996.80;;;;;;5055469;28;20534;-64
2020/12/28 05:01:10;;;;;;;6.45;4.68;;;205.50;1996.80;;;;;;5056747;28;20067;-65
2020/12/28 05:03:36;;;;;;;5.85;4.80;;;205.50;1996.80;;;;;;5056546;28;20031;-65
2020/12/28 05:06:02;;;;;;;7.88;4.70;;;205.50;1996.80;;;;;;5056434;28;20095;-65
2020/12/28 05:08:28;;;;;;;6.88;5.25;;;205.50;1996.80;;;;;;5056569;28;20516;-65
2020/12/28 05:10:53;;;;;;;7.28;4.75;;;205.50;1996.80;;;;;;5056587;28;20111;-65
2020/12/28 05:13:20;;;;;;;7.85;5.15;;;205.50;1996.80;;;;;;5056251;28;20024;-64
2020/12/28 05:15:50;;;;;;;8.63;5.38;;;205.50;1996.80;;;;;;5056630;28;20119;-64
2020/12/28 05:18:19;;;;;;;12.80;7.93;;;205.50;1996.80;;;;;;5056529;28;20021;-65
2020/12/28 05:20:48;;;;;;;9.98;6.10;;;205.50;1996.80;;;;;;5056412;28;20032;-65
2020/12/28 05:23:15;;;;;;;10.07;6.20;;;205.50;1996.80;;;;;;5056893;28;20082;-65
2020/12/28 05:25:45;;;;;;;7.68;5.53;;;205.60;1971.20;;;;;;5056328;28;20072;-65
2020/12/28 05:28:24;;;;;;;10.25;5.93;;;205.60;1996.80;;;;;;5056402;28;20060;-65
2020/12/28 05:30:51;;;;;;;7.05;4.97;;;205.60;1996.80;;;;;;5056138;28;20143;-65
2020/12/28 05:33:18;;;;;;;8.73;5.82;;;205.60;1971.20;;;;;;5056436;28;20433;-66
2020/12/28 05:35:44;;;;;;;33.38;22.45;;;205.60;1971.20;;;;;;5056207;28;20021;-65
2020/12/28 05:38:11;;;;;;;26.38;17.70;;;205.60;1971.20;;;;;;5054304;28;20434;-65
2020/12/28 05:40:37;;;;;;;21.70;16.45;;;205.60;1971.20;;;;;;5056009;28;20025;-65
2020/12/28 05:43:04;;;;;;;23.55;16.38;;;205.60;1971.20;;;;;;5056014;28;20100;-64
2020/12/28 05:45:31;;;;;;;19.70;14.52;;;205.60;1971.20;;;;;;5056068;28;20044;-64
2020/12/28 05:47:58;;;;;;;18.67;13.88;;;205.60;1996.80;;;;;;5055896;28;20034;-65
2020/12/28 05:50:26;;;;;;;17.95;13.85;;;205.60;1996.80;;;;;;5055915;28;20081;-65
2020/12/28 05:52:54;;;;;;;19.25;14.68;;;205.60;1971.20;;;;;;5055801;28;20066;-66
2020/12/28 05:55:22;;;;;;;17.95;15.05;;;205.60;1971.20;;;;;;5055710;28;20104;-65
2020/12/28 05:57:48;;;;;;;22.98;19.65;;;205.70;1971.20;;;;;;5055841;28;20099;-65
2020/12/28 06:00:14;;;;;;;23.63;19.00;;;205.70;1971.20;;;;;;5055593;28;20052;-65
2020/12/28 06:02:40;;;;;;;26.25;23.00;;;205.70;1971.20;;;;;;5055580;28;20104;-65
2020/12/28 06:05:14;;;;;;;23.13;19.98;;;205.70;1971.20;;;;;;5055158;28;20411;-65
2020/12/28 06:07:40;;;;;;;30.98;23.38;;;205.70;1971.20;;;;;;5055237;28;20037;-65
2020/12/28 06:10:08;;;;;;;27.05;24.15;;;205.70;1971.20;;;;;;5054526;28;20028;-65
2020/12/28 06:12:34;;;;;;;16.55;13.52;;;205.70;1971.20;;;;;;5055366;28;20099;-65
2020/12/28 06:15:00;;;;;;;20.33;15.73;;;205.70;1971.20;;;;;;5055315;28;20056;-65
2020/12/28 06:17:33;;;;;;;16.38;12.63;;;205.70;1971.20;;;;;;5055456;28;20025;-65
2020/12/28 06:20:01;;;;;;;10.50;9.30;;;230.40;1971.20;;;;;;5055104;28;20028;-65
2020/12/28 06:22:27;;;;;;;14.50;8.95;;;230.40;1945.60;;;;;;5055662;28;20021;-66
2020/12/28 06:25:16;;;;;;;13.13;9.23;;;230.40;1945.60;;;;;;5054597;28;20127;-65
2020/12/28 06:27:46;;;;;;;17.58;8.98;;;230.40;1945.60;;;;;;5055206;28;20398;-65
2020/12/28 06:30:22;;;;;;;18.45;10.35;;;230.40;1971.20;;;;;;5055384;28;20025;-65
2020/12/28 06:32:52;;;;;;;20.02;10.88;;;205.70;1971.20;;;;;;5055165;28;20021;-65
2020/12/28 06:35:18;;;;;;;11.05;7.68;;;230.40;1945.60;;;;;;5054884;28;20021;-65
2020/12/28 06:37:48;;;;;;;9.95;7.30;;;230.40;1945.60;;;;;;5054857;28;20025;-66
2020/12/28 06:40:15;;;;;;;14.60;10.02;;;230.40;1945.60;;;;;;5054976;28;20100;-65
2020/12/28 06:42:41;;;;;;;26.10;15.50;;;230.40;1945.60;;;;;;5055174;28;20025;-65
2020/12/28 06:45:14;;;;;;;30.63;16.75;;;230.40;1945.60;;;;;;5054756;28;20025;-65
2020/12/28 06:47:41;;;;;;;53.90;30.25;;;230.40;1945.60;;;;;;5054592;28;20032;-65
2020/12/28 06:50:07;;;;;;;45.50;27.10;;;230.40;1945.60;;;;;;5054752;28;20025;-66
2020/12/28 06:52:32;;;;;;;109.55;71.18;;;230.40;1945.60;;;;;;5054755;28;20079;-65
2020/12/28 06:55:08;;;;;;;73.32;49.72;;;230.40;1920.00;;;;;;5054742;28;20470;-65
2020/12/28 06:57:35;;;;;;;54.80;32.83;;;205.70;1945.60;;;;;;5053067;28;20144;-65
2020/12/28 07:00:00;;;;;;;59.20;36.42;;;205.60;1920.00;;;;;;5054468;28;20021;-65
2020/12/28 07:02:27;;;;;;;56.90;39.42;;;205.60;1920.00;;;;;;5054568;28;20025;-64
2020/12/28 07:04:53;;;;;;;54.88;41.17;;;205.60;1920.00;;;;;;5053424;28;20079;-67
2020/12/28 07:07:19;;;;;;;55.17;35.67;;;205.50;1920.00;;;;;;5054182;28;20406;-65
2020/12/28 07:09:48;;;;;;;59.92;35.08;;;205.50;1971.20;;;;;;5054373;28;20032;-65
2020/12/28 07:12:14;;;;;;;54.83;34.67;;;205.60;1945.60;;;;;;5054265;28;20099;-65
2020/12/28 07:14:39;;;;;;;54.72;33.80;;;205.60;1945.60;;;;;;5054242;28;20056;-65
2020/12/28 07:17:05;;;;;;;57.10;33.15;;;205.60;1971.20;;;;;;5054429;28;20170;-65
2020/12/28 07:19:32;;;;;;;64.05;35.33;;;205.60;1945.60;;;;;;5054199;28;20033;-65
2020/12/28 07:21:57;;;;;;;65.15;37.75;;;205.50;1945.60;;;;;;5054139;28;20025;-65
2020/12/28 07:24:23;;;;;;;55.85;34.42;;;205.50;1920.00;;;;;;5054065;28;20490;-65
2020/12/28 07:26:49;;;;;;;62.92;36.05;;;205.40;1920.00;;;;;;5054030;28;20040;-65
2020/12/28 07:29:18;;;;;;;60.95;34.72;;;205.40;1920.00;;;;;;5054103;28;20025;-65
2020/12/28 07:31:45;;;;;;;53.97;32.10;;;205.30;1920.00;;;;;;5054198;28;20025;-65
2020/12/28 07:34:19;;;;;;;54.60;32.50;;;205.20;1920.00;;;;;;5053457;28;20020;-66
2020/12/28 07:36:48;;;;;;;61.42;33.92;;;205.20;1945.60;;;;;;5053991;28;20025;-65
2020/12/28 07:39:14;;;;;;;58.85;34.63;;;205.20;1920.00;;;;;;5053973;28;20455;-65
2020/12/28 07:41:41;;;;;;;59.72;32.92;;;205.10;1945.60;;;;;;5054077;28;20493;-65
2020/12/28 07:44:11;;;;;;;65.28;34.95;;;205.10;1920.00;;;;;;5053813;28;20352;-65
2020/12/28 07:46:53;;;;;;;63.03;36.17;;;205.10;1920.00;;;;;;5053647;28;20041;-65
2020/12/28 07:49:21;;;;;;;51.95;32.30;;;205.10;1920.00;;;;;;5053857;28;20035;-65
2020/12/28 07:52:27;;;;;;;60.30;34.00;;;205.10;1920.00;;;;;;5053804;28;20377;-65
2020/12/28 07:55:20;;;;;;;77.70;42.45;;;205.00;1945.60;;;;;;5053142;28;20037;-66
2020/12/28 07:58:17;;;;;;;82.47;47.85;;;205.10;1920.00;;;;;;5011816;28;20080;-65
2020/12/28 08:00:46;;;;;;;88.75;51.70;;;205.10;1945.60;;;;;;5012002;28;20104;-65
2020/12/28 08:03:15;;;;;;;96.97;57.15;;;205.10;1920.00;;;;;;5011916;28;20041;-65
2020/12/28 08:05:42;;;;;;;110.05;66.55;;;205.10;1945.60;;;;;;5011545;28;20443;-65
2020/12/28 08:08:22;;;;;;;142.07;82.00;;;205.20;1945.60;;;;;;5011750;28;20440;-65
2020/12/28 08:10:59;;;;;;;178.43;95.97;;;205.20;1945.60;;;;;;5012097;28;20109;-65
2020/12/28 08:13:27;;;;;;;386.15;165.48;;;205.20;1945.60;;;;;;5011920;28;20032;-65
2020/12/28 08:15:53;;;;;;;403.45;189.02;;;205.30;1920.00;;;;;;5012125;28;20038;-65
2020/12/28 08:18:19;;;;;;;345.70;164.32;;;205.30;1920.00;;;;;;5011577;28;20113;-66
2020/12/28 08:20:56;;;;;;;224.98;113.93;;;205.30;1920.00;;;;;;5011325;28;20041;-65
2020/12/28 08:23:26;;;;;;;159.38;87.03;;;205.30;1920.00;;;;;;5011724;28;20029;-66
2020/12/28 08:25:51;;;;;;;123.72;69.20;;;205.30;1920.00;;;;;;5011779;28;20046;-66
2020/12/28 08:28:19;;;;;;;107.80;63.58;;;205.40;1920.00;;;;;;5012332;28;20049;-65
2020/12/28 08:30:44;;;;;;;100.18;57.83;;;205.40;1920.00;;;;;;5011817;28;20061;-66
2020/12/28 08:33:11;;;;;;;112.05;64.63;;;205.40;1920.00;;;;;;5013391;28;20046;-66
2020/12/28 08:35:49;;;;;;;124.95;70.20;;;205.40;1920.00;;;;;;5055365;28;20029;-66
2020/12/28 08:38:15;;;;;;;144.63;80.85;;;205.50;1920.00;;;;;;5057121;28;20029;-66
2020/12/28 08:40:41;;;;;;;155.90;85.32;;;205.50;1920.00;;;;;;5057139;28;20390;-66
2020/12/28 08:43:09;;;;;;;138.52;76.82;;;205.60;1920.00;;;;;;5057128;28;20032;-65
2020/12/28 08:45:34;;;;;;;143.95;80.43;;;205.60;1920.00;;;;;;5056503;28;20040;-65
2020/12/28 08:48:00;;;;;;;160.50;89.22;;;205.60;1920.00;;;;;;5056530;28;20382;-65
2020/12/28 08:50:33;;;;;;;176.98;93.10;;;205.70;1920.00;;;;;;5056992;28;20471;-65
2020/12/28 08:52:58;;;;;;;189.55;101.32;;;205.70;1920.00;;;;;;5057048;28;20025;-65
2020/12/28 08:55:24;;;;;;;177.77;96.68;;;205.70;1920.00;;;;;;5056824;28;20367;-65
2020/12/28 08:57:55;;;;;;;161.18;92.70;;;230.40;1920.00;;;;;;5056781;28;20086;-66
2020/12/28 09:00:25;;;;;;;152.68;86.72;;;230.40;1920.00;;;;;;5056651;28;20116;-66
2020/12/28 09:02:56;;;;;;;141.60;83.78;;;230.40;1920.00;;;;;;5056696;28;20090;-66
2020/12/28 09:05:31;;;;;;;142.82;82.38;;;230.40;1920.00;;;;;;5056279;28;20510;-70
2020/12/28 09:07:58;;;;;;;131.07;76.20;;;230.50;1920.00;;;;;;5056303;28;20116;-65
2020/12/28 09:10:23;;;;;;;128.60;74.85;;;230.60;1920.00;;;;;;5056092;28;20028;-69
2020/12/28 09:12:49;;;;;;;121.95;70.93;;;230.60;1920.00;;;;;;5055245;28;20497;-65
2020/12/28 09:15:15;;;;;;;114.15;68.05;;;230.70;1920.00;;;;;;5056102;28;20028;-65
2020/12/28 09:17:41;;;;;;;86.93;53.25;;;230.80;1920.00;;;;;;5056438;28;20490;-66
2020/12/28 09:20:07;;;;;;;77.28;45.47;;;230.80;1920.00;;;;;;5056501;28;20104;-65
2020/12/28 09:22:33;;;;;;;83.70;47.92;;;230.90;1920.00;;;;;;5055620;28;20025;-67
2020/12/28 09:24:59;;;;;;;88.88;46.38;;;231.00;1920.00;;;;;;5054953;28;20052;-69
2020/12/28 09:27:25;;;;;;;84.05;45.08;;;231.10;1920.00;;;;;;5054934;28;20202;-65
2020/12/28 09:29:51;;;;;;;78.80;42.47;;;231.20;1920.00;;;;;;5054859;28;20077;-65
2020/12/28 09:32:16;;;;;;;74.50;39.38;;;231.20;1894.40;;;;;;5054955;28;20071;-66
2020/12/28 09:34:42;;;;;;;76.45;42.45;;;231.20;1920.00;;;;;;5054968;28;20017;-65
2020/12/28 09:37:08;;;;;;;75.68;39.90;;;231.30;1920.00;;;;;;5055957;28;20398;-67
2020/12/28 09:39:35;;;;;;;49.58;27.35;;;231.30;1920.00;;;;;;5056199;28;20459;-67
2020/12/28 09:42:02;;;;;;;36.50;21.67;;;231.30;1894.40;;;;;;5055812;28;20021;-67
2020/12/28 09:44:29;;;;;;;34.78;18.63;;;256.00;1894.40;;;;;;5054420;28;20051;-67
2020/12/28 09:46:55;;;;;;;33.60;17.88;;;256.00;1894.40;;;;;;5055794;28;20041;-68
2020/12/28 09:49:21;;;;;;;39.42;20.15;;;256.10;1894.40;;;;;;5055522;28;20109;-69
2020/12/28 09:51:48;;;;;;;41.03;21.52;;;256.10;1868.80;;;;;;5054444;28;20047;-68
2020/12/28 09:54:14;;;;;;;67.43;31.65;;;256.20;1894.40;;;;;;5054247;28;20061;-69
2020/12/28 09:56:40;;;;;;;68.10;33.08;;;256.30;1894.40;;;;;;5055886;28;20412;-69
2020/12/28 09:59:06;;;;;;;70.05;33.47;;;256.30;1920.00;;;;;;5054752;28;20517;-68
2020/12/28 10:01:32;;;;;;;45.88;24.45;;;256.30;1894.40;;;;;;5055285;28;20032;-68
2020/12/28 10:03:57;;;;;;;34.67;19.50;;;256.40;1868.80;;;;;;5054876;28;20029;-68
2020/12/28 10:06:34;;;;;;;27.45;14.88;;;256.40;1894.40;;;;;;5055234;28;20085;-68
2020/12/28 10:09:07;;;;;;;21.00;12.80;;;256.50;1868.80;;;;;;5054974;28;20082;-69
2020/12/28 10:11:33;;;;;;;17.05;11.23;;;256.60;1868.80;;;;;;5052594;28;20098;-69
2020/12/28 10:13:59;;;;;;;15.45;9.13;;;256.70;1894.40;;;;;;5054325;28;20032;-67
2020/12/28 10:16:27;;;;;;;16.65;10.40;;;256.80;1894.40;;;;;;5054333;28;20029;-68
2020/12/28 10:18:54;;;;;;;19.70;11.50;;;256.90;1894.40;;;;;;5054088;28;20021;-68
2020/12/28 10:21:21;;;;;;;20.17;12.60;;;256.90;1868.80;;;;;;5054451;28;20029;-67
2020/12/28 10:23:48;;;;;;;25.27;13.32;;;281.60;1894.40;;;;;;5054177;28;20028;-73
2020/12/28 10:26:22;;;;;;;31.58;15.45;;;281.60;1894.40;;;;;;5053946;28;20102;-68
2020/12/28 10:28:52;;;;;;;40.00;18.40;;;281.60;1894.40;;;;;;5054152;28;20474;-72
2020/12/28 10:31:18;;;;;;;30.30;15.32;;;281.70;1868.80;;;;;;5054169;28;20036;-69
2020/12/28 10:33:45;;;;;;;28.52;14.80;;;281.90;1894.40;;;;;;5053688;28;20021;-68
2020/12/28 10:36:24;;;;;;;28.48;14.07;;;282.10;1920.00;;;;;;5053965;28;20025;-68
2020/12/28 10:38:51;;;;;;;18.02;10.85;;;282.30;1920.00;;;;;;5054182;28;20720;-68
2020/12/28 10:41:24;;;;;;;16.27;9.23;;;282.40;1894.40;;;;;;5053878;28;20028;-67
2020/12/28 10:43:50;;;;;;;16.33;8.73;;;307.20;1894.40;;;;;;5054163;28;20033;-67
2020/12/28 10:46:15;;;;;;;18.33;8.13;;;307.30;1894.40;;;;;;5053908;28;20037;-68
2020/12/28 10:48:41;;;;;;;16.05;7.47;;;307.40;1868.80;;;;;;5052156;28;20033;-68
2020/12/28 10:51:11;;;;;;;13.60;6.95;;;307.40;1817.60;;;;;;5052685;28;20079;-67
2020/12/28 10:53:37;;;;;;;11.98;7.82;;;307.30;1817.60;;;;;;5053220;28;20462;-68
2020/12/28 10:56:03;;;;;;;13.93;7.50;;;307.30;1817.60;;;;;;5052937;28;20028;-68
2020/12/28 10:58:29;;;;;;;17.52;8.15;;;307.20;1792.00;;;;;;5053771;28;20031;-68
2020/12/28 11:00:55;;;;;;;22.30;7.40;;;307.20;1792.00;;;;;;5052805;28;20433;-68
2020/12/28 11:03:20;;;;;;;13.57;6.93;;;282.50;1792.00;;;;;;5051848;28;20082;-68
2020/12/28 11:05:46;;;;;;;15.98;7.05;;;282.50;1766.40;;;;;;5049352;28;20044;-68
2020/12/28 11:08:12;;;;;;;13.32;7.57;;;282.40;1792.00;;;;;;5052376;28;20025;-67
2020/12/28 11:10:39;;;;;;;15.15;7.93;;;282.40;1792.00;;;;;;5051885;28;20032;-68
2020/12/28 11:13:06;;;;;;;10.80;6.15;;;282.40;1766.40;;;;;;5052605;28;20087;-67
2020/12/28 11:15:32;;;;;;;19.40;7.20;;;282.40;1792.00;;;;;;5057751;28;20045;-67
2020/12/28 11:17:58;;;;;;;15.35;8.45;;;282.40;1766.40;;;;;;5052584;28;20062;-67
2020/12/28 11:20:24;;;;;;;20.85;9.05;;;282.40;1766.40;;;;;;5051543;28;20059;-67
2020/12/28 11:22:50;;;;;;;33.70;12.95;;;282.40;1766.40;;;;;;5052932;28;20031;-67
2020/12/28 11:25:16;;;;;;;28.75;15.13;;;282.40;1792.00;;;;;;5052534;28;20033;-67
2020/12/28 11:27:43;;;;;;;22.98;12.48;;;282.30;1792.00;;;;;;5050256;28;20028;-67
2020/12/28 11:30:09;;;;;;;28.23;12.20;;;282.30;1792.00;;;;;;5052794;28;20024;-68
2020/12/28 11:32:35;;;;;;;29.10;13.30;;;282.30;1792.00;;;;;;5052608;28;20033;-67
2020/12/28 11:35:01;;;;;;;30.00;14.00;;;282.30;1817.60;;;;;;5052442;28;20017;-66
2020/12/28 11:37:27;;;;;;;26.00;12.20;;;282.20;1792.00;;;;;;5052943;28;20047;-68
2020/12/28 11:39:53;;;;;;;20.17;11.25;;;282.20;1792.00;;;;;;5053129;28;20029;-68
2020/12/28 11:42:19;;;;;;;19.85;10.25;;;282.20;1792.00;;;;;;5052494;28;20171;-67
2020/12/28 11:44:46;;;;;;;25.48;9.77;;;282.10;1792.00;;;;;;5052948;28;20028;-67
2020/12/28 11:47:12;;;;;;;18.98;10.60;;;282.10;1792.00;;;;;;5052908;28;20403;-67
2020/12/28 11:49:38;;;;;;;25.70;11.65;;;282.10;1792.00;;;;;;5052530;28;20021;-67
2020/12/28 11:52:04;;;;;;;22.42;11.18;;;282.10;1792.00;;;;;;5052594;28;20310;-67
2020/12/28 11:54:29;;;;;;;19.90;11.18;;;282.10;1792.00;;;;;;5052967;28;20369;-67
2020/12/28 11:56:55;;;;;;;21.30;9.88;;;282.10;1817.60;;;;;;5052430;28;20025;-67
2020/12/28 11:59:21;;;;;;;19.65;10.02;;;282.10;1817.60;;;;;;5052886;28;20021;-68
2020/12/28 12:01:47;;;;;;;19.65;10.80;;;282.10;1817.60;;;;;;5052819;28;20024;-66
2020/12/28 12:04:15;;;;;;;20.35;11.50;;;282.10;1817.60;;;;;;5052261;28;20072;-66
2020/12/28 12:06:41;;;;;;;23.77;13.80;;;282.00;1817.60;;;;;;5052262;28;20033;-68